createdAt,value
2018-06-30T00:01:44.696Z,21.33
2018-06-30T00:04:12.670Z,21.40
2018-06-30T00:06:40.607Z,21.49
2018-06-30T00:09:09.207Z,21.26
2018-06-30T00:11:37.389Z,21.41
2018-06-30T00:14:05.370Z,21.67
2018-06-30T00:16:33.313Z,21.69
2018-06-30T00:19:01.225Z,21.66
2018-06-30T00:21:29.160Z,20.98
2018-06-30T00:23:57.100Z,21.11
2018-06-30T00:26:25.043Z,20.86
2018-06-30T00:28:53.023Z,21.02
2018-06-30T00:31:21.894Z,21.00
2018-06-30T00:33:49.794Z,21.12
2018-06-30T00:36:17.710Z,21.19
2018-06-30T00:38:45.639Z,21.14
2018-06-30T00:41:13.532Z,21.10
2018-06-30T00:43:41.469Z,20.86
2018-06-30T00:46:09.377Z,20.94
2018-06-30T00:48:37.387Z,21.01
2018-06-30T00:51:05.456Z,20.73
2018-06-30T00:53:33.338Z,20.78
2018-06-30T00:56:01.281Z,20.57
2018-06-30T00:58:29.163Z,20.59
2018-06-30T01:00:57.121Z,20.61
2018-06-30T01:03:25.080Z,20.62
2018-06-30T01:05:52.986Z,20.36
2018-06-30T01:08:20.956Z,20.45
2018-06-30T01:10:48.806Z,20.73
2018-06-30T01:13:16.749Z,20.47
2018-06-30T01:15:44.675Z,20.37
2018-06-30T01:18:12.554Z,20.68
2018-06-30T01:20:40.817Z,20.68
2018-06-30T01:23:08.718Z,20.45
2018-06-30T01:25:36.606Z,20.56
2018-06-30T01:28:04.918Z,20.56
2018-06-30T01:30:32.799Z,20.56
2018-06-30T01:33:01.045Z,20.78
2018-06-30T01:35:28.910Z,20.65
2018-06-30T01:37:57.282Z,20.74
2018-06-30T01:40:25.500Z,20.79
2018-06-30T01:42:53.376Z,20.80
2018-06-30T01:45:21.266Z,20.83
2018-06-30T01:47:49.130Z,20.81
2018-06-30T01:50:17.055Z,20.69
2018-06-30T01:52:44.949Z,20.76
2018-06-30T01:55:12.959Z,20.68
2018-06-30T01:57:40.828Z,20.59
2018-06-30T02:00:08.743Z,20.66
2018-06-30T02:02:36.631Z,20.73
2018-06-30T02:05:04.658Z,20.63
2018-06-30T02:07:32.603Z,20.81
2018-06-30T02:10:00.472Z,20.82
2018-06-30T02:12:28.395Z,20.93
2018-06-30T02:14:56.306Z,21.11
2018-06-30T02:17:24.204Z,20.87
2018-06-30T02:19:52.083Z,21.06
2018-06-30T02:22:20.031Z,20.85
2018-06-30T02:24:47.917Z,21.04
2018-06-30T02:27:15.898Z,20.98
2018-06-30T02:29:43.839Z,21.01
2018-06-30T02:32:11.854Z,21.17
2018-06-30T02:34:39.819Z,20.96
2018-06-30T02:37:07.822Z,21.03
2018-06-30T02:39:42.253Z,20.91
2018-06-30T02:42:10.210Z,20.80
2018-06-30T02:44:38.398Z,20.82
2018-06-30T02:47:06.714Z,20.89
2018-06-30T02:49:34.701Z,20.83
2018-06-30T02:52:02.727Z,20.98
2018-06-30T02:54:30.771Z,20.91
2018-06-30T02:56:58.781Z,20.87
2018-06-30T02:59:26.743Z,20.97
2018-06-30T03:01:54.765Z,21.06
2018-06-30T03:04:22.771Z,20.88
2018-06-30T03:06:50.827Z,20.64
2018-06-30T03:09:18.861Z,21.06
2018-06-30T03:11:46.828Z,20.83
2018-06-30T03:14:14.703Z,21.16
2018-06-30T03:16:42.555Z,21.00
2018-06-30T03:19:10.485Z,21.01
2018-06-30T03:21:38.377Z,20.83
2018-06-30T03:24:06.256Z,21.09
2018-06-30T03:26:34.151Z,20.74
2018-06-30T03:29:02.022Z,20.95
2018-06-30T03:31:29.889Z,20.81
2018-06-30T03:33:57.786Z,20.65
2018-06-30T03:36:25.690Z,20.53
2018-06-30T03:38:53.556Z,20.63
2018-06-30T03:41:21.511Z,20.74
2018-06-30T03:43:49.371Z,20.71
2018-06-30T03:46:17.301Z,20.50
2018-06-30T03:48:45.118Z,20.47
2018-06-30T03:51:13.050Z,20.68
2018-06-30T03:53:40.929Z,20.87
2018-06-30T03:56:08.866Z,20.88
2018-06-30T03:58:36.755Z,21.18
2018-06-30T04:01:04.700Z,21.07
2018-06-30T04:03:32.631Z,21.08
2018-06-30T04:06:00.555Z,20.92
2018-06-30T04:08:28.451Z,20.90
2018-06-30T04:10:56.387Z,21.01
2018-06-30T04:13:24.250Z,21.10
2018-06-30T04:15:52.114Z,20.88
2018-06-30T04:18:20.012Z,20.91
2018-06-30T04:20:47.896Z,20.90
2018-06-30T04:23:15.832Z,20.93
2018-06-30T04:25:43.817Z,20.84
2018-06-30T04:28:11.682Z,21.13
2018-06-30T04:30:39.612Z,21.04
2018-06-30T04:33:07.983Z,21.29
2018-06-30T04:35:35.884Z,21.18
2018-06-30T04:38:03.780Z,21.08
2018-06-30T04:40:32.020Z,21.47
2018-06-30T04:42:59.871Z,21.39
2018-06-30T04:45:27.782Z,21.53
2018-06-30T04:47:55.696Z,21.16
2018-06-30T04:50:23.578Z,21.50
2018-06-30T04:52:51.512Z,21.36
2018-06-30T04:55:19.445Z,21.34
2018-06-30T04:57:47.378Z,21.31
2018-06-30T05:00:15.306Z,21.68
2018-06-30T05:02:43.195Z,21.66
2018-06-30T05:05:11.176Z,21.76
2018-06-30T05:07:39.122Z,21.64
2018-06-30T05:10:07.048Z,21.67
2018-06-30T05:12:34.947Z,22.02
2018-06-30T05:15:02.919Z,21.98
2018-06-30T05:17:30.783Z,21.86
2018-06-30T05:19:58.657Z,22.32
2018-06-30T05:22:26.514Z,22.13
2018-06-30T05:24:54.439Z,22.63
2018-06-30T05:27:22.364Z,22.67
2018-06-30T05:29:50.241Z,22.98
2018-06-30T05:32:18.208Z,23.19
2018-06-30T05:34:46.146Z,23.26
2018-06-30T05:37:14.023Z,23.52
2018-06-30T05:39:41.934Z,24.08
2018-06-30T05:42:09.836Z,24.47
2018-06-30T05:44:37.755Z,23.80
2018-06-30T05:47:05.711Z,23.86
2018-06-30T05:49:33.620Z,23.90
2018-06-30T05:52:01.531Z,24.29
2018-06-30T05:54:29.508Z,24.79
2018-06-30T05:56:57.486Z,24.21
2018-06-30T05:59:25.677Z,24.64
2018-06-30T06:01:53.943Z,24.77
2018-06-30T06:04:22.228Z,24.82
2018-06-30T06:06:50.385Z,24.55
2018-06-30T06:09:18.541Z,23.73
2018-06-30T06:11:46.669Z,24.02
2018-06-30T06:14:14.853Z,23.74
2018-06-30T06:16:43.064Z,24.32
2018-06-30T06:19:11.284Z,24.06
2018-06-30T06:21:39.517Z,24.10
2018-06-30T06:24:07.704Z,23.60
2018-06-30T06:26:35.853Z,24.22
2018-06-30T06:29:04.241Z,24.32
2018-06-30T06:31:32.396Z,24.09
2018-06-30T06:34:00.595Z,23.76
2018-06-30T06:36:28.800Z,24.59
2018-06-30T06:38:56.979Z,24.24
2018-06-30T06:41:25.198Z,24.68
2018-06-30T06:43:53.735Z,24.36
2018-06-30T06:46:21.944Z,24.74
2018-06-30T06:48:50.123Z,25.18
2018-06-30T06:51:18.289Z,24.87
2018-06-30T06:53:46.473Z,24.79
2018-06-30T06:56:14.659Z,25.06
2018-06-30T06:58:42.921Z,24.69
2018-06-30T07:01:11.090Z,24.53
2018-06-30T07:03:39.793Z,24.72
2018-06-30T07:06:08.111Z,24.55
2018-06-30T07:08:36.321Z,25.00
2018-06-30T07:11:04.751Z,24.59
2018-06-30T07:13:32.897Z,24.69
2018-06-30T07:16:01.060Z,24.39
2018-06-30T07:18:29.217Z,24.49
2018-06-30T07:20:57.438Z,24.77
2018-06-30T07:23:25.873Z,24.74
2018-06-30T07:25:54.035Z,24.40
2018-06-30T07:28:22.276Z,24.66
2018-06-30T07:30:50.778Z,24.44
2018-06-30T07:33:19.233Z,24.21
2018-06-30T07:35:47.873Z,24.30
2018-06-30T07:38:16.096Z,24.34
2018-06-30T07:40:44.261Z,24.44
2018-06-30T07:43:12.524Z,24.47
2018-06-30T07:45:41.213Z,25.16
2018-06-30T07:48:09.354Z,25.19
2018-06-30T07:50:37.614Z,25.43
2018-06-30T07:53:05.802Z,25.92
2018-06-30T07:55:33.965Z,25.18
2018-06-30T07:58:02.129Z,25.32
2018-06-30T08:00:30.275Z,26.09
2018-06-30T08:02:58.446Z,25.96
2018-06-30T08:05:26.633Z,25.78
2018-06-30T08:07:54.832Z,26.06
2018-06-30T08:10:22.994Z,26.35
2018-06-30T08:12:51.113Z,27.30
2018-06-30T08:15:19.330Z,27.16
2018-06-30T08:17:47.535Z,26.42
2018-06-30T08:20:15.906Z,26.39
2018-06-30T08:22:44.149Z,26.04
2018-06-30T08:25:12.289Z,25.94
2018-06-30T08:27:40.513Z,25.59
2018-06-30T08:30:08.729Z,25.02
2018-06-30T08:32:37.016Z,24.82
2018-06-30T08:35:05.285Z,24.66
2018-06-30T08:37:33.563Z,24.80
2018-06-30T08:40:01.766Z,25.23
2018-06-30T08:42:30.186Z,25.30
2018-06-30T08:44:58.403Z,25.06
2018-06-30T08:47:26.654Z,25.10
2018-06-30T08:49:54.881Z,24.91
2018-06-30T08:52:23.168Z,24.52
2018-06-30T08:54:51.386Z,24.64
2018-06-30T08:57:19.669Z,24.13
2018-06-30T08:59:48.197Z,23.59
2018-06-30T09:02:16.399Z,24.89
2018-06-30T09:04:44.595Z,25.14
2018-06-30T09:07:12.862Z,24.63
2018-06-30T09:09:41.590Z,24.52
2018-06-30T09:12:09.868Z,24.57
2018-06-30T09:14:38.046Z,23.86
2018-06-30T09:17:06.304Z,24.17
2018-06-30T09:19:34.463Z,24.56
2018-06-30T09:22:02.639Z,24.27
2018-06-30T09:24:30.806Z,24.64
2018-06-30T09:26:58.964Z,24.53
2018-06-30T09:29:27.222Z,24.51
2018-06-30T09:31:55.337Z,24.16
2018-06-30T09:34:23.470Z,24.80
2018-06-30T09:36:51.704Z,24.95
2018-06-30T09:39:19.885Z,25.53
2018-06-30T09:41:48.094Z,25.12
2018-06-30T09:44:16.286Z,24.71
2018-06-30T09:46:44.442Z,25.22
2018-06-30T09:49:12.670Z,24.89
2018-06-30T09:51:40.863Z,24.63
2018-06-30T09:54:09.082Z,24.87
2018-06-30T09:56:37.312Z,25.22
2018-06-30T09:59:05.498Z,25.44
2018-06-30T10:01:33.714Z,25.63
2018-06-30T10:04:01.972Z,25.59
2018-06-30T10:06:30.110Z,25.62
2018-06-30T10:08:58.337Z,25.27
2018-06-30T10:11:26.679Z,25.26
2018-06-30T10:13:54.958Z,25.78
2018-06-30T10:16:23.161Z,25.77
2018-06-30T10:18:52.314Z,25.92
2018-06-30T10:21:20.527Z,26.12
2018-06-30T10:23:48.697Z,26.65
2018-06-30T10:26:16.926Z,27.93
2018-06-30T10:28:45.108Z,28.61
2018-06-30T10:31:13.401Z,29.23
2018-06-30T10:33:41.671Z,29.61
2018-06-30T10:36:09.933Z,29.52
2018-06-30T10:38:38.229Z,28.97
2018-06-30T10:41:06.704Z,29.79
2018-06-30T10:43:35.237Z,30.52
2018-06-30T10:46:04.510Z,31.10
2018-06-30T10:48:34.011Z,30.69
2018-06-30T10:51:02.182Z,31.85
2018-06-30T10:53:30.392Z,31.64
2018-06-30T10:55:59.026Z,29.79
2018-06-30T10:58:27.398Z,29.50
2018-06-30T11:00:55.587Z,27.89
2018-06-30T11:03:23.878Z,24.89
2018-06-30T11:05:52.103Z,24.45
2018-06-30T11:08:20.354Z,23.95
2018-06-30T11:10:48.635Z,24.91
2018-06-30T11:13:17.132Z,25.33
2018-06-30T11:15:45.673Z,25.57
2018-06-30T11:18:13.873Z,24.93
2018-06-30T11:20:42.110Z,24.67
2018-06-30T11:23:10.311Z,24.23
2018-06-30T11:25:38.610Z,23.27
2018-06-30T11:28:07.208Z,24.12
2018-06-30T11:30:35.454Z,25.43
2018-06-30T11:33:03.724Z,25.66
2018-06-30T11:35:32.646Z,25.60
2018-06-30T11:38:00.883Z,26.66
2018-06-30T11:40:29.102Z,27.90
2018-06-30T11:42:57.759Z,27.82
2018-06-30T11:45:27.014Z,27.74
2018-06-30T11:47:55.337Z,26.37
2018-06-30T11:50:23.553Z,26.13
2018-06-30T11:52:51.801Z,25.73
2018-06-30T11:55:20.025Z,25.34
2018-06-30T11:57:48.256Z,25.02
2018-06-30T12:00:16.423Z,25.62
2018-06-30T12:02:44.616Z,25.18
2018-06-30T12:05:12.867Z,25.42
2018-06-30T12:07:41.061Z,24.96
2018-06-30T12:10:09.264Z,24.67
2018-06-30T12:12:37.546Z,24.40
2018-06-30T12:15:05.738Z,24.41
2018-06-30T12:17:33.946Z,24.19
2018-06-30T12:20:02.179Z,23.78
2018-06-30T12:22:30.398Z,24.06
2018-06-30T12:24:58.658Z,23.66
2018-06-30T12:27:26.840Z,24.38
2018-06-30T12:29:55.052Z,24.86
2018-06-30T12:32:23.364Z,25.33
2018-06-30T12:34:51.582Z,25.41
2018-06-30T12:37:19.761Z,25.33
2018-06-30T12:39:47.961Z,25.28
2018-06-30T12:42:16.176Z,24.42
2018-06-30T12:44:44.371Z,24.47
2018-06-30T12:47:12.598Z,24.51
2018-06-30T12:49:40.872Z,24.49
2018-06-30T12:52:09.198Z,24.45
2018-06-30T12:54:37.696Z,24.44
2018-06-30T12:57:05.810Z,24.33
2018-06-30T12:59:34.823Z,24.63
2018-06-30T13:02:03.126Z,24.11
2018-06-30T13:04:31.337Z,23.83
2018-06-30T13:06:59.583Z,23.53
2018-06-30T13:09:27.812Z,23.58
2018-06-30T13:11:56.053Z,23.91
2018-06-30T13:14:24.341Z,23.71
2018-06-30T13:16:54.309Z,23.94
2018-06-30T13:19:22.424Z,24.13
2018-06-30T13:21:50.627Z,24.38
2018-06-30T13:24:18.914Z,24.57
2018-06-30T13:26:47.193Z,24.79
2018-06-30T13:29:15.399Z,24.73
2018-06-30T13:31:43.584Z,24.64
2018-06-30T13:34:11.817Z,24.76
2018-06-30T13:36:40.009Z,24.60
2018-06-30T13:39:13.316Z,24.36
2018-06-30T13:41:41.843Z,24.16
2018-06-30T13:44:10.586Z,24.14
2018-06-30T13:46:38.900Z,24.26
2018-06-30T13:49:07.247Z,24.22
2018-06-30T13:51:35.855Z,23.93
2018-06-30T13:54:04.516Z,23.92
2018-06-30T13:56:32.740Z,23.91
2018-06-30T13:59:00.950Z,24.08
2018-06-30T14:01:29.247Z,23.90
2018-06-30T14:03:57.462Z,23.70
2018-06-30T14:06:25.628Z,23.60
2018-06-30T14:08:53.808Z,23.57
2018-06-30T14:11:22.067Z,23.77
2018-06-30T14:13:51.218Z,23.83
2018-06-30T14:16:19.189Z,23.86
2018-06-30T14:18:47.217Z,23.87
2018-06-30T14:21:15.412Z,23.81
2018-06-30T14:23:44.575Z,24.21
2018-06-30T14:26:12.687Z,23.94
2018-06-30T14:28:41.231Z,23.80
2018-06-30T14:31:09.358Z,23.86
2018-06-30T14:33:37.442Z,23.91
2018-06-30T14:36:05.548Z,24.13
2018-06-30T14:38:33.577Z,24.02
2018-06-30T14:41:01.698Z,23.78
2018-06-30T14:43:29.707Z,23.86
2018-06-30T14:45:57.699Z,23.78
2018-06-30T14:48:25.773Z,23.71
2018-06-30T14:50:53.852Z,23.97
2018-06-30T14:53:21.905Z,23.53
2018-06-30T14:55:49.914Z,23.38
2018-06-30T14:58:17.914Z,23.62
2018-06-30T15:00:46.019Z,23.90
2018-06-30T15:03:14.410Z,24.38
2018-06-30T15:05:42.443Z,24.32
2018-06-30T15:08:10.544Z,24.76
2018-06-30T15:10:38.612Z,25.16
2018-06-30T15:13:06.627Z,25.63
2018-06-30T15:15:35.788Z,25.91
2018-06-30T15:18:03.975Z,25.60
2018-06-30T15:20:32.056Z,25.07
2018-06-30T15:23:00.080Z,25.08
2018-06-30T15:25:28.120Z,25.26
2018-06-30T15:27:57.066Z,25.50
2018-06-30T15:30:25.030Z,25.57
2018-06-30T15:32:53.149Z,25.67
2018-06-30T15:35:21.280Z,25.44
2018-06-30T15:37:49.297Z,25.17
2018-06-30T15:40:18.137Z,24.92
2018-06-30T15:42:46.792Z,24.58
2018-06-30T15:45:14.856Z,24.29
2018-06-30T15:47:42.952Z,23.82
2018-06-30T15:50:11.518Z,24.07
2018-06-30T15:52:39.571Z,24.18
2018-06-30T15:55:07.634Z,23.98
2018-06-30T15:57:35.592Z,23.91
2018-06-30T16:00:04.367Z,23.49
2018-06-30T16:02:32.541Z,23.55
2018-06-30T16:05:00.560Z,23.45
2018-06-30T16:07:28.587Z,23.54
2018-06-30T16:09:56.737Z,24.26
2018-06-30T16:12:24.731Z,24.23
2018-06-30T16:14:52.812Z,24.25
2018-06-30T16:17:20.876Z,23.71
2018-06-30T16:19:48.897Z,24.08
2018-06-30T16:22:16.927Z,23.47
2018-06-30T16:24:45.018Z,23.38
2018-06-30T16:27:13.062Z,23.56
2018-06-30T16:29:41.073Z,23.60
2018-06-30T16:32:09.067Z,23.80
2018-06-30T16:34:37.106Z,23.83
2018-06-30T16:37:05.094Z,23.82
2018-06-30T16:39:33.194Z,24.05
2018-06-30T16:42:01.247Z,24.35
2018-06-30T16:44:29.342Z,24.26
2018-06-30T16:46:57.536Z,23.99
2018-06-30T16:49:25.551Z,23.81
2018-06-30T16:51:53.579Z,23.41
2018-06-30T16:54:21.659Z,23.56
2018-06-30T16:56:49.701Z,23.01
2018-06-30T16:59:17.701Z,22.95
2018-06-30T17:01:45.766Z,22.85
2018-06-30T17:04:14.034Z,23.23
2018-06-30T17:06:42.082Z,22.88
2018-06-30T17:09:12.306Z,22.87
2018-06-30T17:11:40.298Z,22.87
2018-06-30T17:14:08.363Z,22.58
2018-06-30T17:16:37.363Z,22.81
2018-06-30T17:19:05.459Z,22.77
2018-06-30T17:21:34.200Z,22.67
2018-06-30T17:24:02.549Z,22.91
2018-06-30T17:26:30.670Z,22.60
2018-06-30T17:28:59.012Z,22.22
2018-06-30T17:31:27.200Z,22.31
2018-06-30T17:33:55.327Z,22.24
2018-06-30T17:36:23.432Z,22.34
2018-06-30T17:38:51.522Z,22.54
2018-06-30T17:41:19.636Z,22.51
2018-06-30T17:43:47.641Z,22.07
2018-06-30T17:46:15.722Z,22.57
2018-06-30T17:48:44.732Z,22.67
2018-06-30T17:51:13.457Z,22.41
2018-06-30T17:53:41.632Z,22.38
2018-06-30T17:56:09.645Z,22.51
2018-06-30T17:58:37.748Z,22.57
2018-06-30T18:01:06.011Z,22.59
2018-06-30T18:03:34.062Z,22.37
2018-06-30T18:06:02.108Z,22.37
2018-06-30T18:08:30.117Z,22.82
2018-06-30T18:10:58.141Z,22.91
2018-06-30T18:13:26.198Z,23.15
2018-06-30T18:15:54.379Z,22.91
2018-06-30T18:18:22.822Z,23.20
2018-06-30T18:20:50.882Z,22.90
2018-06-30T18:23:19.976Z,23.30
2018-06-30T18:25:48.320Z,23.47
2018-06-30T18:28:16.313Z,23.29
2018-06-30T18:30:44.395Z,23.33
2018-06-30T18:33:13.445Z,22.71
2018-06-30T18:35:41.501Z,22.66
2018-06-30T18:38:09.737Z,22.55
2018-06-30T18:40:38.147Z,22.15
2018-06-30T18:43:07.055Z,22.20
2018-06-30T18:45:35.076Z,22.45
2018-06-30T18:48:03.663Z,22.31
2018-06-30T18:50:31.840Z,22.39
2018-06-30T18:52:59.984Z,22.22
2018-06-30T18:55:28.151Z,22.34
2018-06-30T18:57:56.598Z,21.99
2018-06-30T19:00:24.963Z,22.03
2018-06-30T19:02:54.167Z,22.03
2018-06-30T19:05:22.295Z,21.93
2018-06-30T19:07:50.427Z,21.89
2018-06-30T19:10:18.563Z,21.91
2018-06-30T19:12:46.812Z,21.94
2018-06-30T19:15:15.748Z,21.99
2018-06-30T19:17:44.067Z,22.04
2018-06-30T19:20:13.331Z,22.05
2018-06-30T19:22:41.640Z,21.98
2018-06-30T19:25:10.241Z,22.52
2018-06-30T19:27:38.341Z,22.74
2018-06-30T19:30:09.204Z,22.73
2018-06-30T19:32:37.731Z,22.84
2018-06-30T19:35:05.912Z,22.89
2018-06-30T19:37:35.201Z,22.63
2018-06-30T19:40:04.608Z,22.90
2018-06-30T19:42:33.809Z,22.89
2018-06-30T19:45:02.693Z,23.03
2018-06-30T19:47:31.446Z,22.93
2018-06-30T19:50:00.808Z,23.08
2018-06-30T19:52:29.248Z,22.82
2018-06-30T19:54:58.044Z,23.08
2018-06-30T19:57:26.228Z,23.29
2018-06-30T19:59:54.347Z,23.34
2018-06-30T20:02:22.890Z,23.13
2018-06-30T20:04:51.849Z,22.83
2018-06-30T20:07:20.148Z,22.50
2018-06-30T20:09:48.674Z,22.42
2018-06-30T20:12:16.793Z,22.19
2018-06-30T20:14:44.920Z,22.12
2018-06-30T20:17:12.995Z,22.33
2018-06-30T20:19:41.023Z,22.33
2018-06-30T20:22:09.071Z,22.21
2018-06-30T20:24:37.287Z,22.36
2018-06-30T20:27:05.388Z,22.16
2018-06-30T20:29:33.560Z,22.22
2018-06-30T20:32:01.609Z,22.22
2018-06-30T20:34:29.659Z,22.46
2018-06-30T20:36:57.686Z,22.55
2018-06-30T20:39:26.003Z,22.40
2018-06-30T20:41:54.723Z,22.33
2018-06-30T20:44:22.738Z,22.19
2018-06-30T20:46:50.775Z,22.46
2018-06-30T20:49:18.819Z,22.37
2018-06-30T20:51:46.839Z,22.46
2018-06-30T20:54:14.937Z,22.23
2018-06-30T20:56:43.352Z,22.05
2018-06-30T20:59:11.393Z,21.94
2018-06-30T21:01:39.374Z,21.88
2018-06-30T21:04:07.495Z,21.99
2018-06-30T21:06:35.844Z,22.10
2018-06-30T21:09:06.269Z,21.88
2018-06-30T21:11:34.308Z,21.88
2018-06-30T21:14:02.312Z,21.90
2018-06-30T21:16:30.245Z,21.98
2018-06-30T21:18:58.199Z,22.05
2018-06-30T21:21:26.212Z,22.20
2018-06-30T21:23:54.180Z,22.20
2018-06-30T21:26:22.157Z,22.40
2018-06-30T21:28:50.104Z,22.46
2018-06-30T21:31:18.000Z,22.37
2018-06-30T21:33:45.893Z,22.77
2018-06-30T21:36:13.953Z,22.51
2018-06-30T21:38:41.939Z,22.38
2018-06-30T21:41:09.827Z,22.63
2018-06-30T21:43:37.993Z,23.02
2018-06-30T21:46:06.479Z,23.11
2018-06-30T21:48:34.659Z,22.88
2018-06-30T21:51:02.643Z,22.99
2018-06-30T21:53:30.608Z,23.03
2018-06-30T21:55:58.561Z,23.13
2018-06-30T21:58:26.425Z,23.31
2018-06-30T22:00:59.789Z,23.18
2018-06-30T22:03:27.883Z,22.93
2018-06-30T22:05:56.765Z,23.09
2018-06-30T22:08:24.739Z,23.23
2018-06-30T22:10:52.771Z,23.09
2018-06-30T22:13:20.688Z,23.20
2018-06-30T22:15:49.162Z,23.47
2018-06-30T22:18:17.077Z,23.49
2018-06-30T22:20:44.924Z,23.36
2018-06-30T22:23:12.886Z,23.42
2018-06-30T22:25:40.763Z,23.28
2018-06-30T22:28:08.714Z,23.20
2018-06-30T22:30:36.602Z,23.47
2018-06-30T22:33:04.581Z,23.32
2018-06-30T22:35:32.504Z,23.46
2018-06-30T22:38:00.372Z,23.71
2018-06-30T22:40:28.271Z,23.44
2018-06-30T22:42:56.094Z,23.22
2018-06-30T22:45:24.040Z,23.37
2018-06-30T22:47:51.927Z,23.50
2018-06-30T22:50:19.831Z,23.36
2018-06-30T22:52:47.792Z,23.56
2018-06-30T22:55:15.723Z,23.07
2018-06-30T22:57:43.727Z,23.28
2018-06-30T23:00:13.583Z,23.17
2018-06-30T23:02:41.403Z,23.45
2018-06-30T23:05:09.338Z,23.53
2018-06-30T23:07:37.323Z,23.58
2018-06-30T23:10:05.353Z,23.24
2018-06-30T23:12:33.303Z,23.25
2018-06-30T23:15:01.208Z,23.31
2018-06-30T23:17:29.147Z,23.16
2018-06-30T23:19:57.067Z,23.18
2018-06-30T23:23:00.602Z,22.95
2018-06-30T23:25:29.603Z,22.97
2018-06-30T23:27:57.936Z,23.12
2018-06-30T23:30:26.315Z,23.06
2018-06-30T23:32:54.251Z,23.08
2018-06-30T23:35:23.673Z,23.17
2018-06-30T23:37:51.980Z,23.13
2018-06-30T23:40:19.970Z,22.98
2018-06-30T23:42:48.167Z,22.96
2018-06-30T23:45:16.233Z,22.85
2018-06-30T23:47:44.131Z,22.79
2018-06-30T23:50:12.029Z,22.52
2018-06-30T23:52:39.921Z,22.84
2018-06-30T23:55:08.578Z,22.73
2018-06-30T23:57:36.514Z,22.88
